createdAt,value
2023-01-12T00:02:30.775Z,12.87
2023-01-12T00:06:32.426Z,12.74
2023-01-12T00:10:32.453Z,12.76
2023-01-12T00:14:32.503Z,12.86
2023-01-12T00:18:35.449Z,12.37
2023-01-12T00:22:35.517Z,12.85
2023-01-12T00:26:35.549Z,12.90
2023-01-12T00:30:35.607Z,12.67
2023-01-12T00:34:38.302Z,12.78
2023-01-12T00:38:39.036Z,12.90
2023-01-12T00:42:52.558Z,12.73
2023-01-12T00:46:52.957Z,12.73
2023-01-12T00:50:55.565Z,12.79
2023-01-12T00:54:55.584Z,12.61
2023-01-12T00:58:55.628Z,12.75
2023-01-12T01:02:55.773Z,13.03
2023-01-12T01:06:58.481Z,12.71
2023-01-12T01:11:04.963Z,12.86
2023-01-12T01:15:05.164Z,12.93
2023-01-12T01:19:06.067Z,13.09
2023-01-12T01:23:08.704Z,12.93
2023-01-12T01:27:08.743Z,12.90
2023-01-12T01:31:11.914Z,12.70
2023-01-12T01:35:12.759Z,12.94
2023-01-12T01:39:15.485Z,12.77
2023-01-12T01:43:17.365Z,12.65
2023-01-12T01:47:36.268Z,12.40
2023-01-12T01:51:36.335Z,12.79
2023-01-12T01:55:48.359Z,12.47
2023-01-12T01:59:57.857Z,12.83
2023-01-12T02:04:00.882Z,12.74
2023-01-12T02:08:11.280Z,12.54
2023-01-12T02:12:26.867Z,12.75
2023-01-12T02:16:33.293Z,12.96
2023-01-12T02:21:07.160Z,12.71
2023-01-12T02:25:58.518Z,12.56
2023-01-12T02:30:56.008Z,12.36
2023-01-12T02:35:13.074Z,12.66
2023-01-12T02:39:22.175Z,12.70
2023-01-12T02:43:30.590Z,12.80
2023-01-12T02:47:41.072Z,12.66
2023-01-12T02:51:50.846Z,12.29
2023-01-12T02:55:51.959Z,12.63
2023-01-12T02:59:54.237Z,12.32
2023-01-12T03:04:00.960Z,12.34
2023-01-12T03:08:06.986Z,12.28
2023-01-12T03:12:13.341Z,12.43
2023-01-12T03:16:17.789Z,12.83
2023-01-12T03:20:26.252Z,12.41
2023-01-12T03:24:35.380Z,12.42
2023-01-12T03:28:39.764Z,12.50
2023-01-12T03:32:40.095Z,12.31
2023-01-12T03:36:52.329Z,12.20
2023-01-12T03:41:08.481Z,11.94
2023-01-12T03:45:21.707Z,11.86
2023-01-12T03:49:33.585Z,11.99
2023-01-12T03:53:36.131Z,11.96
2023-01-12T03:57:41.355Z,12.01
2023-01-12T04:01:42.064Z,11.82
2023-01-12T04:05:44.622Z,12.06
2023-01-12T04:09:44.642Z,11.78
2023-01-12T04:13:47.271Z,11.97
2023-01-12T04:17:47.308Z,11.97
2023-01-12T04:21:59.869Z,11.92
2023-01-12T04:25:59.948Z,11.99
2023-01-12T04:30:02.659Z,11.96
2023-01-12T04:34:02.690Z,11.95
2023-01-12T04:38:10.299Z,11.72
2023-01-12T04:42:30.809Z,11.79
2023-01-12T04:46:33.565Z,11.51
2023-01-12T04:50:34.098Z,12.07
2023-01-12T04:54:34.201Z,12.24
2023-01-12T04:58:35.103Z,11.95
2023-01-12T05:02:37.780Z,12.08
2023-01-12T05:06:37.927Z,12.38
2023-01-12T05:10:38.054Z,12.34
2023-01-12T05:14:38.417Z,12.40
2023-01-12T05:18:41.327Z,12.31
2023-01-12T05:22:41.442Z,12.64
2023-01-12T05:26:42.203Z,12.30
2023-01-12T05:30:42.279Z,12.57
2023-01-12T05:34:44.880Z,12.60
2023-01-12T05:38:45.305Z,12.23
2023-01-12T05:42:57.852Z,12.33
2023-01-12T05:46:57.970Z,12.34
2023-01-12T05:51:04.078Z,12.29
2023-01-12T05:55:04.142Z,11.89
2023-01-12T05:59:06.064Z,12.28
2023-01-12T06:03:06.668Z,12.47
2023-01-12T06:07:09.317Z,12.41
2023-01-12T06:11:29.404Z,12.35
2023-01-12T06:15:29.413Z,11.91
2023-01-12T06:19:29.511Z,12.14
2023-01-12T06:23:35.334Z,12.13
2023-01-12T06:27:38.323Z,12.53
2023-01-12T06:31:38.879Z,12.66
2023-01-12T06:35:38.977Z,12.53
2023-01-12T06:39:41.626Z,12.39
2023-01-12T06:43:41.634Z,12.64
2023-01-12T06:47:49.423Z,12.88
2023-01-12T06:51:51.605Z,12.47
2023-01-12T06:55:55.589Z,12.33
2023-01-12T06:59:56.910Z,12.27
2023-01-12T07:03:57.283Z,12.52
2023-01-12T07:08:02.190Z,12.27
2023-01-12T07:12:04.944Z,12.19
2023-01-12T07:16:05.563Z,12.37
2023-01-12T07:20:05.723Z,12.65
2023-01-12T07:24:06.076Z,12.41
2023-01-12T07:28:08.827Z,12.38
2023-01-12T07:32:09.528Z,12.43
2023-01-12T07:36:10.439Z,12.45
2023-01-12T07:40:13.323Z,12.46
2023-01-12T07:44:15.950Z,12.41
2023-01-12T07:48:16.524Z,12.48
2023-01-12T07:52:17.558Z,12.50
2023-01-12T07:56:19.222Z,12.66
2023-01-12T08:00:24.387Z,12.85
2023-01-12T08:04:25.068Z,12.58
2023-01-12T08:08:25.178Z,12.86
2023-01-12T08:12:25.240Z,12.78
2023-01-12T08:16:33.959Z,13.04
2023-01-12T08:20:38.414Z,12.98
2023-01-12T08:24:47.323Z,12.98
2023-01-12T08:28:54.361Z,13.03
2023-01-12T08:33:01.268Z,12.96
2023-01-12T08:37:07.229Z,13.16
2023-01-12T08:41:20.385Z,13.02
2023-01-12T08:45:21.619Z,12.86
2023-01-12T08:49:28.405Z,12.65
2023-01-12T08:53:28.455Z,12.61
2023-01-12T08:57:28.634Z,13.07
2023-01-12T09:01:28.990Z,13.12
2023-01-12T09:05:31.659Z,13.59
2023-01-12T09:09:31.717Z,13.58
2023-01-12T09:13:31.758Z,13.53
2023-01-12T09:17:31.821Z,13.76
2023-01-12T09:21:35.287Z,13.49
2023-01-12T09:25:37.185Z,13.64
2023-01-12T09:29:37.343Z,13.38
2023-01-12T09:33:41.125Z,13.44
2023-01-12T09:37:45.041Z,13.19
2023-01-12T09:42:03.594Z,13.23
2023-01-12T09:46:16.353Z,13.41
2023-01-12T09:50:22.587Z,13.51
2023-01-12T09:54:25.491Z,14.03
2023-01-12T09:58:50.406Z,14.20
2023-01-12T10:02:56.144Z,14.16
2023-01-12T10:06:57.423Z,14.45
2023-01-12T10:11:18.315Z,14.02
2023-01-12T10:15:34.084Z,14.24
2023-01-12T10:19:47.180Z,13.77
2023-01-12T10:23:48.760Z,13.48
2023-01-12T10:27:54.291Z,13.46
2023-01-12T10:31:54.559Z,13.81
2023-01-12T10:36:02.172Z,13.08
2023-01-12T10:40:02.305Z,13.61
2023-01-12T10:44:18.466Z,13.35
2023-01-12T10:48:24.023Z,13.12
2023-01-12T10:52:42.175Z,13.43
2023-01-12T10:56:55.620Z,13.72
2023-01-12T11:00:58.969Z,13.73
2023-01-12T11:04:59.100Z,13.55
2023-01-12T11:09:00.398Z,13.47
2023-01-12T11:13:03.592Z,13.12
2023-01-12T11:17:36.758Z,13.38
2023-01-12T11:21:43.876Z,12.74
2023-01-12T11:25:49.466Z,12.99
2023-01-12T11:30:00.652Z,13.11
2023-01-12T11:34:11.209Z,13.05
2023-01-12T11:38:20.031Z,12.95
2023-01-12T11:42:40.426Z,12.91
2023-01-12T11:46:48.399Z,13.29
2023-01-12T11:50:53.569Z,13.55
2023-01-12T11:54:53.733Z,13.70
2023-01-12T11:59:05.494Z,13.53
2023-01-12T12:03:40.891Z,14.11
2023-01-12T12:08:03.253Z,13.56
2023-01-12T12:12:10.653Z,13.52
2023-01-12T12:16:29.210Z,13.38
2023-01-12T12:20:41.651Z,13.11
2023-01-12T12:25:11.774Z,13.58
2023-01-12T12:29:41.208Z,13.87
2023-01-12T12:34:09.672Z,12.65
2023-01-12T12:38:30.218Z,13.31
2023-01-12T12:43:06.718Z,13.84
2023-01-12T12:47:42.973Z,13.12
2023-01-12T12:51:44.889Z,13.47
2023-01-12T12:55:46.951Z,13.35
2023-01-12T13:00:03.238Z,13.22
2023-01-12T13:04:05.557Z,13.47
2023-01-12T13:08:06.291Z,13.08
2023-01-12T13:12:34.630Z,13.09
2023-01-12T13:16:51.879Z,13.27
2023-01-12T13:21:01.158Z,13.47
2023-01-12T13:25:03.546Z,13.52
2023-01-12T13:29:44.498Z,13.65
2023-01-12T13:33:47.204Z,12.82
2023-01-12T13:37:57.765Z,13.34
2023-01-12T13:42:11.548Z,12.82
2023-01-12T13:46:19.768Z,12.72
2023-01-12T13:50:26.669Z,13.12
2023-01-12T13:54:26.879Z,12.89
2023-01-12T13:58:27.581Z,12.58
2023-01-12T14:02:30.421Z,12.77
2023-01-12T14:06:49.429Z,12.76
2023-01-12T14:11:00.218Z,13.28
2023-01-12T14:15:39.292Z,13.59
2023-01-12T14:19:44.363Z,13.31
2023-01-12T14:23:47.072Z,13.23
2023-01-12T14:27:55.384Z,13.73
2023-01-12T14:31:57.071Z,13.90
2023-01-12T14:36:01.616Z,14.14
2023-01-12T14:40:04.721Z,14.08
2023-01-12T14:44:18.454Z,13.60
2023-01-12T14:48:32.185Z,13.59
2023-01-12T14:52:36.369Z,13.80
2023-01-12T14:56:46.041Z,13.89
2023-01-12T15:00:48.029Z,13.75
2023-01-12T15:04:57.834Z,13.80
2023-01-12T15:09:02.994Z,14.04
2023-01-12T15:13:29.100Z,13.81
2023-01-12T15:17:56.574Z,13.59
2023-01-12T15:22:09.238Z,13.81
2023-01-12T15:26:09.270Z,13.69
2023-01-12T15:30:14.928Z,13.58
2023-01-12T15:34:15.254Z,13.42
2023-01-12T15:38:17.488Z,13.75
2023-01-12T15:42:22.216Z,13.77
2023-01-12T15:46:24.883Z,13.72
2023-01-12T15:50:24.983Z,13.74
2023-01-12T15:54:25.362Z,13.87
2023-01-12T15:58:26.286Z,13.38
2023-01-12T16:02:38.134Z,14.02
2023-01-12T16:06:38.421Z,14.11
2023-01-12T16:10:58.914Z,13.79
2023-01-12T16:14:59.869Z,13.94
2023-01-12T16:19:06.038Z,13.85
2023-01-12T16:23:06.079Z,14.06
2023-01-12T16:27:06.191Z,14.09
2023-01-12T16:31:10.103Z,14.40
2023-01-12T16:35:12.820Z,14.31
2023-01-12T16:39:15.437Z,14.02
2023-01-12T16:43:20.918Z,14.18
2023-01-12T16:47:24.461Z,14.08
2023-01-12T16:51:27.985Z,13.78
2023-01-12T16:55:28.174Z,13.92
2023-01-12T16:59:30.298Z,13.91
2023-01-12T17:03:30.489Z,14.13
2023-01-12T17:07:33.884Z,14.56
2023-01-12T17:11:35.139Z,14.52
2023-01-12T17:15:37.582Z,14.33
2023-01-12T17:19:42.687Z,14.22
2023-01-12T17:23:47.061Z,14.50
2023-01-12T17:27:48.378Z,14.91
2023-01-12T17:31:49.545Z,14.46
2023-01-12T17:35:49.851Z,14.75
2023-01-12T17:39:53.059Z,14.81
2023-01-12T17:43:53.132Z,14.91
2023-01-12T17:47:53.325Z,14.54
2023-01-12T17:51:53.492Z,14.58
2023-01-12T17:55:56.748Z,15.01
2023-01-12T17:59:57.541Z,14.44
2023-01-12T18:03:58.102Z,14.87
2023-01-12T18:07:58.413Z,14.82
2023-01-12T18:12:01.469Z,14.82
2023-01-12T18:16:03.000Z,14.35
2023-01-12T18:20:04.255Z,14.34
2023-01-12T18:24:09.457Z,14.29
2023-01-12T18:28:12.321Z,14.57
2023-01-12T18:32:12.689Z,14.80
2023-01-12T18:36:17.104Z,14.55
2023-01-12T18:40:17.262Z,14.51
2023-01-12T18:44:20.793Z,14.91
2023-01-12T18:48:24.339Z,14.58
2023-01-12T18:52:36.941Z,14.59
2023-01-12T18:56:37.024Z,14.52
2023-01-12T19:00:40.439Z,14.39
2023-01-12T19:05:00.835Z,14.30
2023-01-12T19:09:13.397Z,14.51
2023-01-12T19:13:25.965Z,14.64
2023-01-12T19:17:32.953Z,15.27
2023-01-12T19:21:45.627Z,14.94
2023-01-12T19:25:58.273Z,14.57
2023-01-12T19:29:58.313Z,14.82
2023-01-12T19:34:01.027Z,15.06
2023-01-12T19:38:01.104Z,14.93
2023-01-12T19:42:13.645Z,14.41
2023-01-12T19:46:15.551Z,14.80
2023-01-12T19:50:18.512Z,14.77
2023-01-12T19:54:19.270Z,14.76
2023-01-12T19:58:21.948Z,14.70
2023-01-12T20:02:22.222Z,14.88
2023-01-12T20:06:25.203Z,15.21
2023-01-12T20:10:26.528Z,15.08
2023-01-12T20:14:26.626Z,15.16
2023-01-12T20:18:27.153Z,14.78
2023-01-12T20:22:29.853Z,14.95
2023-01-12T20:26:30.312Z,15.06
2023-01-12T20:30:37.915Z,15.01
2023-01-12T20:34:38.592Z,15.13
2023-01-12T20:38:42.290Z,14.83
2023-01-12T20:42:42.835Z,14.59
2023-01-12T20:46:43.133Z,14.68
2023-01-12T20:50:46.478Z,14.51
2023-01-12T20:54:49.317Z,14.78
2023-01-12T20:58:49.519Z,14.77
2023-01-12T21:02:49.613Z,14.84
2023-01-12T21:06:49.941Z,14.45
2023-01-12T21:10:56.854Z,15.01
2023-01-12T21:14:57.122Z,15.04
2023-01-12T21:18:57.287Z,15.09
2023-01-12T21:22:57.412Z,15.07
2023-01-12T21:27:00.257Z,14.55
2023-01-12T21:31:04.087Z,14.71
2023-01-12T21:35:04.493Z,14.68
2023-01-12T21:39:04.937Z,14.69
2023-01-12T21:43:12.448Z,14.61
2023-01-12T21:47:12.922Z,14.55
2023-01-12T21:51:16.519Z,14.61
2023-01-12T21:55:18.917Z,14.18
2023-01-12T21:59:21.713Z,14.51
2023-01-12T22:03:22.570Z,14.66
2023-01-12T22:07:22.688Z,14.74
2023-01-12T22:11:22.794Z,14.80
2023-01-12T22:15:29.427Z,14.90
2023-01-12T22:19:29.496Z,14.82
2023-01-12T22:23:29.651Z,15.11
2023-01-12T22:27:29.702Z,14.74
2023-01-12T22:31:32.539Z,15.11
2023-01-12T22:35:32.792Z,14.77
2023-01-12T22:39:32.844Z,14.70
2023-01-12T22:43:32.922Z,15.12
2023-01-12T22:47:47.707Z,14.85
2023-01-12T22:51:48.471Z,14.63
2023-01-12T22:55:49.041Z,14.53
2023-01-12T22:59:49.248Z,14.73
2023-01-12T23:03:55.521Z,14.70
2023-01-12T23:07:55.749Z,14.87
2023-01-12T23:11:55.945Z,15.14
2023-01-12T23:15:58.913Z,14.81
2023-01-12T23:20:02.356Z,14.74
2023-01-12T23:24:03.579Z,15.00
2023-01-12T23:28:04.415Z,15.20
2023-01-12T23:32:04.854Z,15.09
2023-01-12T23:36:10.983Z,15.23
2023-01-12T23:40:13.739Z,14.80
2023-01-12T23:44:14.097Z,14.55
2023-01-12T23:48:14.302Z,15.04
2023-01-12T23:52:17.250Z,14.80
2023-01-12T23:56:19.788Z,14.89
